createdAt,value
2022-12-12T00:00:48.564Z,28.98
2022-12-12T00:03:08.647Z,32.15
2022-12-12T00:05:28.769Z,28.20
2022-12-12T00:07:48.614Z,29.02
2022-12-12T00:10:09.081Z,25.90
2022-12-12T00:12:28.840Z,20.55
2022-12-12T00:14:48.424Z,28.85
2022-12-12T00:17:08.040Z,25.98
2022-12-12T00:19:27.697Z,29.95
2022-12-12T00:21:47.451Z,31.27
2022-12-12T00:24:07.330Z,30.55
2022-12-12T00:26:30.747Z,31.20
2022-12-12T00:28:50.861Z,27.52
2022-12-12T00:31:10.964Z,35.40
2022-12-12T00:33:30.847Z,32.10
2022-12-12T00:35:54.622Z,40.00
2022-12-12T00:38:14.603Z,19.33
2022-12-12T00:40:35.644Z,21.02
2022-12-12T00:42:55.295Z,28.90
2022-12-12T00:45:15.284Z,20.48
2022-12-12T00:47:35.286Z,28.15
2022-12-12T00:49:55.025Z,39.80
2022-12-12T00:52:15.274Z,21.15
2022-12-12T00:54:35.078Z,17.98
2022-12-12T00:56:54.901Z,23.42
2022-12-12T00:59:14.949Z,17.10
2022-12-12T01:01:35.245Z,21.20
2022-12-12T01:03:55.545Z,20.80
2022-12-12T01:06:16.274Z,28.13
2022-12-12T01:08:37.720Z,20.38
2022-12-12T01:10:57.670Z,19.00
2022-12-12T01:13:17.402Z,22.65
2022-12-12T01:15:37.288Z,27.73
2022-12-12T01:17:57.094Z,34.97
2022-12-12T01:20:20.202Z,34.95
2022-12-12T01:22:39.922Z,38.75
2022-12-12T01:25:00.090Z,40.13
2022-12-12T01:27:19.814Z,48.33
2022-12-12T01:29:39.379Z,38.72
2022-12-12T01:31:58.938Z,51.22
2022-12-12T01:34:19.265Z,34.28
2022-12-12T01:36:40.047Z,31.80
2022-12-12T01:39:00.080Z,28.40
2022-12-12T01:41:20.675Z,28.85
2022-12-12T01:43:40.520Z,32.20
2022-12-12T01:46:02.805Z,29.83
2022-12-12T01:48:29.719Z,27.25
2022-12-12T01:50:51.310Z,27.25
2022-12-12T01:53:15.389Z,28.50
2022-12-12T01:55:35.556Z,28.63
2022-12-12T01:57:55.401Z,25.40
2022-12-12T02:00:15.637Z,28.42
2022-12-12T02:02:36.163Z,35.17
2022-12-12T02:04:57.517Z,33.47
2022-12-12T02:07:17.971Z,28.05
2022-12-12T02:09:38.596Z,26.58
2022-12-12T02:11:58.670Z,32.40
2022-12-12T02:14:23.780Z,35.45
2022-12-12T02:16:52.808Z,32.63
2022-12-12T02:19:37.690Z,31.50
2022-12-12T02:22:09.006Z,32.50
2022-12-12T02:25:05.564Z,23.63
2022-12-12T02:27:31.062Z,29.75
2022-12-12T02:29:54.163Z,30.30
2022-12-12T02:32:13.793Z,33.28
2022-12-12T02:34:37.918Z,29.40
2022-12-12T02:37:16.438Z,32.65
2022-12-12T02:39:44.971Z,26.50
2022-12-12T02:42:13.825Z,31.92
2022-12-12T02:44:44.819Z,29.65
2022-12-12T02:47:25.914Z,31.50
2022-12-12T02:50:13.408Z,27.83
2022-12-12T02:52:33.965Z,30.00
2022-12-12T02:54:53.452Z,31.10
2022-12-12T02:57:22.142Z,33.17
2022-12-12T02:59:46.819Z,26.63
2022-12-12T03:02:40.970Z,25.92
2022-12-12T03:05:51.518Z,27.98
2022-12-12T03:08:32.739Z,32.13
2022-12-12T03:11:03.800Z,36.72
2022-12-12T03:13:35.607Z,29.52
2022-12-12T03:16:21.092Z,32.38
2022-12-12T03:18:57.334Z,29.75
2022-12-12T03:21:21.827Z,27.83
2022-12-12T03:23:48.732Z,46.03
2022-12-12T03:26:11.276Z,30.35
2022-12-12T03:28:38.240Z,30.30
2022-12-12T03:31:03.606Z,21.08
2022-12-12T03:33:41.087Z,11.38
2022-12-12T03:36:21.580Z,16.27
2022-12-12T03:38:56.119Z,20.08
2022-12-12T03:41:20.504Z,29.95
2022-12-12T03:43:45.965Z,39.28
2022-12-12T03:46:31.028Z,40.70
2022-12-12T03:48:59.020Z,38.65
2022-12-12T03:51:30.777Z,40.90
2022-12-12T03:54:07.420Z,39.35
2022-12-12T03:56:32.688Z,41.92
2022-12-12T03:59:07.131Z,42.10
2022-12-12T04:01:51.159Z,40.85
2022-12-12T04:04:39.138Z,44.92
2022-12-12T04:07:14.913Z,37.70
2022-12-12T04:09:53.576Z,38.03
2022-12-12T04:12:32.039Z,43.53
2022-12-12T04:15:00.995Z,40.83
2022-12-12T04:17:29.260Z,49.03
2022-12-12T04:20:22.077Z,36.08
2022-12-12T04:23:10.131Z,37.60
2022-12-12T04:25:30.379Z,37.42
2022-12-12T04:27:54.442Z,40.35
2022-12-12T04:30:15.587Z,40.90
2022-12-12T04:33:04.086Z,38.33
2022-12-12T04:35:31.268Z,38.75
2022-12-12T04:37:57.113Z,35.28
2022-12-12T04:40:33.201Z,37.40
2022-12-12T04:43:08.233Z,35.83
2022-12-12T04:45:32.461Z,33.47
2022-12-12T04:47:55.629Z,33.53
2022-12-12T04:50:18.377Z,36.13
2022-12-12T04:52:40.709Z,33.33
2022-12-12T04:55:17.431Z,32.22
2022-12-12T04:57:47.596Z,33.97
2022-12-12T05:00:09.513Z,32.75
2022-12-12T05:02:41.055Z,31.52
2022-12-12T05:05:17.005Z,32.70
2022-12-12T05:07:45.922Z,34.88
2022-12-12T05:10:10.135Z,32.17
2022-12-12T05:12:38.007Z,32.97
2022-12-12T05:14:57.758Z,37.33
2022-12-12T05:17:24.668Z,42.50
2022-12-12T05:19:44.720Z,37.80
2022-12-12T05:22:05.233Z,33.60
2022-12-12T05:24:30.108Z,34.17
2022-12-12T05:26:49.776Z,37.80
2022-12-12T05:29:11.132Z,46.58
2022-12-12T05:31:31.012Z,38.97
2022-12-12T05:33:50.865Z,41.95
2022-12-12T05:36:11.462Z,38.00
2022-12-12T05:38:31.337Z,37.47
2022-12-12T05:40:51.013Z,36.97
2022-12-12T05:43:10.628Z,38.72
2022-12-12T05:45:30.720Z,43.28
2022-12-12T05:47:50.550Z,39.55
2022-12-12T05:50:10.534Z,33.33
2022-12-12T05:52:30.168Z,41.25
2022-12-12T05:54:49.743Z,36.13
2022-12-12T05:57:09.352Z,37.60
2022-12-12T05:59:30.313Z,44.45
2022-12-12T06:01:49.981Z,39.10
2022-12-12T06:04:09.690Z,33.05
2022-12-12T06:06:29.671Z,34.10
2022-12-12T06:08:50.902Z,32.90
2022-12-12T06:11:10.705Z,33.13
2022-12-12T06:13:30.421Z,40.38
2022-12-12T06:15:50.179Z,36.47
2022-12-12T06:18:11.508Z,36.15
2022-12-12T06:20:31.858Z,41.72
2022-12-12T06:22:54.032Z,34.22
2022-12-12T06:25:14.608Z,29.73
2022-12-12T06:27:34.585Z,32.92
2022-12-12T06:29:54.686Z,32.10
2022-12-12T06:32:15.058Z,32.67
2022-12-12T06:34:36.269Z,29.70
2022-12-12T06:36:56.152Z,29.25
2022-12-12T06:39:15.708Z,24.40
2022-12-12T06:41:36.447Z,27.83
2022-12-12T06:43:56.418Z,27.38
2022-12-12T06:46:28.341Z,28.40
2022-12-12T06:48:49.644Z,25.20
2022-12-12T06:51:15.649Z,15.30
2022-12-12T06:53:35.759Z,13.25
2022-12-12T06:55:55.668Z,15.05
2022-12-12T06:58:15.373Z,13.88
2022-12-12T07:00:35.871Z,14.65
2022-12-12T07:02:55.705Z,18.38
2022-12-12T07:05:16.029Z,27.83
2022-12-12T07:07:36.071Z,32.42
2022-12-12T07:09:55.635Z,34.80
2022-12-12T07:12:15.325Z,32.65
2022-12-12T07:14:37.282Z,33.17
2022-12-12T07:16:57.018Z,34.90
2022-12-12T07:19:16.622Z,33.53
2022-12-12T07:21:37.727Z,42.70
2022-12-12T07:23:57.494Z,30.63
2022-12-12T07:26:20.878Z,34.08
2022-12-12T07:28:41.095Z,32.53
2022-12-12T07:31:06.494Z,33.47
2022-12-12T07:33:35.793Z,30.23
2022-12-12T07:36:01.476Z,30.80
2022-12-12T07:38:21.186Z,29.90
2022-12-12T07:40:41.141Z,35.63
2022-12-12T07:43:01.020Z,33.10
2022-12-12T07:45:20.928Z,32.00
2022-12-12T07:47:40.670Z,28.83
2022-12-12T07:50:00.251Z,30.23
2022-12-12T07:52:20.820Z,27.60
2022-12-12T07:54:40.417Z,14.65
2022-12-12T07:56:59.952Z,16.45
2022-12-12T07:59:19.979Z,13.93
2022-12-12T08:01:40.399Z,14.77
2022-12-12T08:04:01.201Z,12.13
2022-12-12T08:06:22.733Z,11.48
2022-12-12T08:08:43.849Z,12.35
2022-12-12T08:11:05.792Z,12.40
2022-12-12T08:13:25.607Z,13.10
2022-12-12T08:15:45.812Z,14.70
2022-12-12T08:18:05.925Z,14.50
2022-12-12T08:20:26.407Z,16.38
2022-12-12T08:22:46.294Z,13.02
2022-12-12T08:25:07.109Z,14.57
2022-12-12T08:27:27.357Z,13.55
2022-12-12T08:29:46.947Z,14.10
2022-12-12T08:32:06.669Z,14.25
2022-12-12T08:34:26.829Z,13.25
2022-12-12T08:36:46.993Z,13.00
2022-12-12T08:39:12.189Z,11.25
2022-12-12T08:41:34.090Z,12.10
2022-12-12T08:43:53.938Z,13.32
2022-12-12T08:46:18.139Z,12.40
2022-12-12T08:48:38.447Z,12.35
2022-12-12T08:50:58.748Z,11.52
2022-12-12T08:53:18.545Z,12.60
2022-12-12T08:55:38.681Z,11.85
2022-12-12T08:57:58.178Z,12.55
2022-12-12T09:00:18.950Z,15.43
2022-12-12T09:02:39.093Z,17.20
2022-12-12T09:04:59.061Z,17.27
2022-12-12T09:07:18.644Z,14.10
2022-12-12T09:09:38.282Z,13.55
2022-12-12T09:11:58.374Z,11.80
2022-12-12T09:14:18.162Z,12.10
2022-12-12T09:16:38.427Z,10.40
2022-12-12T09:18:58.324Z,11.63
2022-12-12T09:21:18.662Z,10.82
2022-12-12T09:23:38.807Z,12.20
2022-12-12T09:26:03.140Z,11.35
2022-12-12T09:28:25.286Z,11.40
2022-12-12T09:30:46.130Z,16.20
2022-12-12T09:33:06.344Z,15.80
2022-12-12T09:35:25.962Z,11.43
2022-12-12T09:37:45.781Z,10.55
2022-12-12T09:40:07.035Z,10.70
2022-12-12T09:42:29.970Z,13.60
2022-12-12T09:44:52.368Z,10.82
2022-12-12T09:47:18.467Z,12.70
2022-12-12T09:49:53.813Z,12.95
2022-12-12T09:52:29.356Z,11.82
2022-12-12T09:54:50.765Z,10.90
2022-12-12T09:57:32.752Z,13.52
2022-12-12T10:00:17.387Z,13.20
2022-12-12T10:02:48.315Z,18.83
2022-12-12T10:05:34.534Z,21.67
2022-12-12T10:07:54.364Z,15.05
2022-12-12T10:10:43.497Z,9.52
2022-12-12T10:13:06.051Z,9.55
2022-12-12T10:17:48.041Z,12.23
2022-12-12T10:20:19.983Z,14.65
2022-12-12T10:22:48.906Z,13.32
2022-12-12T10:25:20.248Z,9.80
2022-12-12T10:27:40.305Z,7.63
2022-12-12T10:30:06.906Z,7.22
2022-12-12T10:32:39.399Z,6.25
2022-12-12T10:35:28.718Z,9.20
2022-12-12T10:38:12.518Z,10.35
2022-12-12T10:41:03.750Z,9.30
2022-12-12T10:43:40.263Z,8.65
2022-12-12T10:46:27.699Z,14.13
2022-12-12T10:48:48.246Z,12.45
2022-12-12T10:51:14.518Z,8.85
2022-12-12T10:53:34.983Z,9.05
2022-12-12T10:55:59.944Z,6.22
2022-12-12T10:58:25.216Z,7.90
2022-12-12T11:00:47.862Z,7.50
2022-12-12T11:03:40.358Z,9.40
2022-12-12T11:06:05.771Z,8.45
2022-12-12T11:08:34.510Z,7.43
2022-12-12T11:11:09.506Z,7.13
2022-12-12T11:13:30.440Z,6.47
2022-12-12T11:15:56.134Z,6.10
2022-12-12T11:18:21.526Z,7.85
2022-12-12T11:20:48.011Z,7.82
2022-12-12T11:23:18.442Z,6.80
2022-12-12T11:25:38.477Z,6.32
2022-12-12T11:28:06.570Z,5.65
2022-12-12T11:30:31.089Z,5.68
2022-12-12T11:32:54.577Z,5.97
2022-12-12T11:35:28.791Z,6.50
2022-12-12T11:37:53.918Z,6.38
2022-12-12T11:40:29.431Z,7.00
2022-12-12T11:42:49.774Z,6.05
2022-12-12T11:45:10.392Z,9.35
2022-12-12T11:47:42.420Z,43.47
2022-12-12T11:50:15.076Z,18.70
2022-12-12T11:52:35.048Z,11.13
2022-12-12T11:54:55.335Z,7.05
2022-12-12T11:57:30.089Z,6.60
2022-12-12T11:59:58.674Z,7.82
2022-12-12T12:02:40.408Z,5.90
2022-12-12T12:05:12.606Z,6.80
2022-12-12T12:07:50.400Z,7.75
2022-12-12T12:10:31.832Z,6.97
2022-12-12T12:13:18.795Z,10.25
2022-12-12T12:16:11.237Z,8.85
2022-12-12T12:18:37.117Z,8.27
2022-12-12T12:21:12.989Z,10.25
2022-12-12T12:23:42.554Z,8.23
2022-12-12T12:26:18.292Z,8.48
2022-12-12T12:28:44.449Z,6.97
2022-12-12T12:31:20.455Z,8.48
2022-12-12T12:34:01.421Z,8.00
2022-12-12T12:36:28.376Z,9.30
2022-12-12T12:39:23.607Z,7.53
2022-12-12T12:42:14.778Z,17.55
2022-12-12T12:45:11.535Z,9.57
2022-12-12T12:47:31.706Z,8.65
2022-12-12T12:49:59.005Z,12.38
2022-12-12T12:52:38.177Z,8.73
2022-12-12T12:54:59.333Z,7.57
2022-12-12T12:57:31.065Z,7.70
2022-12-12T12:59:55.643Z,6.30
2022-12-12T13:02:37.167Z,7.22
2022-12-12T13:05:25.121Z,7.15
2022-12-12T13:08:13.619Z,5.85
2022-12-12T13:10:36.109Z,6.28
2022-12-12T13:13:09.384Z,5.57
2022-12-12T13:15:58.070Z,10.00
2022-12-12T13:18:18.165Z,7.07
2022-12-12T13:20:42.457Z,6.68
2022-12-12T13:23:30.399Z,6.72
2022-12-12T13:26:05.594Z,6.43
2022-12-12T13:28:58.690Z,6.70
2022-12-12T13:31:24.435Z,8.60
2022-12-12T13:33:52.569Z,8.32
2022-12-12T13:36:12.330Z,8.65
2022-12-12T13:38:33.384Z,8.65
2022-12-12T13:41:07.316Z,9.13
2022-12-12T13:43:32.775Z,10.38
2022-12-12T13:45:53.399Z,9.45
2022-12-12T13:48:44.521Z,9.65
2022-12-12T13:51:31.356Z,8.88
2022-12-12T13:54:13.847Z,9.90
2022-12-12T13:56:40.390Z,10.23
2022-12-12T13:59:00.675Z,11.15
2022-12-12T14:01:26.964Z,11.07
2022-12-12T14:03:47.005Z,10.77
2022-12-12T14:06:10.027Z,12.98
2022-12-12T14:08:36.013Z,11.57
2022-12-12T14:11:06.807Z,11.55
2022-12-12T14:13:44.711Z,8.32
2022-12-12T14:16:17.233Z,7.90
2022-12-12T14:18:39.294Z,7.30
2022-12-12T14:21:12.244Z,8.73
2022-12-12T14:23:43.575Z,9.52
2022-12-12T14:26:29.067Z,19.80
2022-12-12T14:29:17.904Z,16.77
2022-12-12T14:31:40.985Z,14.50
2022-12-12T14:34:27.150Z,22.35
2022-12-12T14:37:18.230Z,15.30
2022-12-12T14:39:55.869Z,12.60
2022-12-12T14:42:20.482Z,21.48
2022-12-12T14:44:45.312Z,14.60
2022-12-12T14:47:09.386Z,22.77
2022-12-12T14:49:29.075Z,19.63
2022-12-12T14:51:51.376Z,12.55
2022-12-12T14:54:23.073Z,11.80
2022-12-12T14:57:00.872Z,13.32
2022-12-12T14:59:32.104Z,18.05
2022-12-12T15:02:06.286Z,18.67
2022-12-12T15:04:38.247Z,20.52
2022-12-12T15:07:20.569Z,15.32
2022-12-12T15:09:46.691Z,14.77
2022-12-12T15:12:09.549Z,26.25
2022-12-12T15:14:29.218Z,12.13
2022-12-12T15:16:59.766Z,20.23
2022-12-12T15:19:25.664Z,22.30
2022-12-12T15:21:46.384Z,18.52
2022-12-12T15:24:13.203Z,23.95
2022-12-12T15:26:32.938Z,21.98
2022-12-12T15:28:53.053Z,16.80
2022-12-12T15:31:16.219Z,16.58
2022-12-12T15:33:37.893Z,28.17
2022-12-12T15:36:04.265Z,22.23
2022-12-12T15:38:24.483Z,16.75
2022-12-12T15:40:50.637Z,23.23
2022-12-12T15:43:19.780Z,25.08
2022-12-12T15:45:43.275Z,21.08
2022-12-12T15:48:06.036Z,17.77
2022-12-12T15:50:46.009Z,15.63
2022-12-12T15:53:17.908Z,15.23
2022-12-12T15:55:38.060Z,11.88
2022-12-12T15:57:58.153Z,26.27
2022-12-12T16:00:38.947Z,36.20
2022-12-12T16:03:21.815Z,28.75
2022-12-12T16:05:41.574Z,21.75
2022-12-12T16:08:36.524Z,19.75
2022-12-12T16:10:58.092Z,20.88
2022-12-12T16:13:17.778Z,23.42
2022-12-12T16:15:37.724Z,21.65
2022-12-12T16:18:12.283Z,17.20
2022-12-12T16:20:33.441Z,16.10
2022-12-12T16:22:52.978Z,14.57
2022-12-12T16:25:18.680Z,13.35
2022-12-12T16:27:38.620Z,11.98
2022-12-12T16:29:58.347Z,12.40
2022-12-12T16:32:19.948Z,12.27
2022-12-12T16:34:41.329Z,10.68
2022-12-12T16:37:01.275Z,8.30
2022-12-12T16:39:21.123Z,9.68
2022-12-12T16:41:41.406Z,10.57
2022-12-12T16:44:01.358Z,23.70
2022-12-12T16:46:24.105Z,13.05
2022-12-12T16:48:44.037Z,12.77
2022-12-12T16:51:06.138Z,15.93
2022-12-12T16:53:26.562Z,16.25
2022-12-12T16:55:49.209Z,15.85
2022-12-12T16:58:09.511Z,15.57
2022-12-12T17:00:29.852Z,14.40
2022-12-12T17:02:49.669Z,11.50
2022-12-12T17:05:17.416Z,19.98
2022-12-12T17:07:36.940Z,21.90
2022-12-12T17:09:56.641Z,25.00
2022-12-12T17:12:16.775Z,28.15
2022-12-12T17:14:36.934Z,36.97
2022-12-12T17:16:56.747Z,29.17
2022-12-12T17:19:17.008Z,27.67
2022-12-12T17:21:36.896Z,30.67
2022-12-12T17:23:56.624Z,29.73
2022-12-12T17:26:16.494Z,26.50
2022-12-12T17:28:36.390Z,24.00
2022-12-12T17:30:56.254Z,23.05
2022-12-12T17:33:17.650Z,24.38
2022-12-12T17:35:38.332Z,19.48
2022-12-12T17:37:58.685Z,18.08
2022-12-12T17:40:18.311Z,21.63
2022-12-12T17:42:38.476Z,21.98
2022-12-12T17:44:58.945Z,25.42
2022-12-12T17:47:18.656Z,26.33
2022-12-12T17:49:38.689Z,26.38
2022-12-12T17:51:58.667Z,26.08
2022-12-12T17:54:18.486Z,23.83
2022-12-12T17:56:38.440Z,25.00
2022-12-12T17:58:57.995Z,33.47
2022-12-12T18:01:23.309Z,26.50
2022-12-12T18:03:43.847Z,24.33
2022-12-12T18:06:03.850Z,25.83
2022-12-12T18:08:23.552Z,26.02
2022-12-12T18:10:44.591Z,28.95
2022-12-12T18:13:04.309Z,24.15
2022-12-12T18:15:24.823Z,19.85
2022-12-12T18:17:44.507Z,25.92
2022-12-12T18:20:04.523Z,22.95
2022-12-12T18:22:24.132Z,20.35
2022-12-12T18:24:43.523Z,21.17
2022-12-12T18:27:03.173Z,26.42
2022-12-12T18:29:23.874Z,27.13
2022-12-12T18:31:43.891Z,23.88
2022-12-12T18:34:04.655Z,22.38
2022-12-12T18:36:26.746Z,25.77
2022-12-12T18:38:47.895Z,20.00
2022-12-12T18:41:08.649Z,22.15
2022-12-12T18:43:29.431Z,19.77
2022-12-12T18:45:49.798Z,28.65
2022-12-12T18:48:09.568Z,29.30
2022-12-12T18:50:29.224Z,27.08
2022-12-12T18:52:48.839Z,22.35
2022-12-12T18:55:08.724Z,23.60
2022-12-12T18:57:28.729Z,24.70
2022-12-12T18:59:48.200Z,30.35
2022-12-12T19:02:11.823Z,31.83
2022-12-12T19:04:31.715Z,36.53
2022-12-12T19:07:56.598Z,22.95
2022-12-12T19:10:18.283Z,14.68
2022-12-12T19:12:37.862Z,17.65
2022-12-12T19:17:37.685Z,21.38
2022-12-12T19:19:57.600Z,20.25
2022-12-12T19:22:43.945Z,25.05
2022-12-12T19:24:57.446Z,23.55
2022-12-12T19:27:17.017Z,23.17
2022-12-12T19:29:36.862Z,24.13
2022-12-12T19:31:58.677Z,23.05
2022-12-12T19:34:18.654Z,22.70
2022-12-12T19:36:38.934Z,19.38
2022-12-12T19:38:59.843Z,17.02
2022-12-12T19:41:21.852Z,19.70
2022-12-12T19:43:43.100Z,21.40
2022-12-12T19:46:15.268Z,18.25
2022-12-12T19:48:36.130Z,17.57
2022-12-12T19:50:55.820Z,18.23
2022-12-12T19:53:15.405Z,19.70
2022-12-12T19:55:35.152Z,20.02
2022-12-12T19:57:54.730Z,20.98
2022-12-12T20:00:19.104Z,21.30
2022-12-12T20:02:38.829Z,22.13
2022-12-12T20:04:58.985Z,20.48
2022-12-12T20:07:19.017Z,28.55
2022-12-12T20:09:38.488Z,27.80
2022-12-12T20:12:02.244Z,24.80
2022-12-12T20:14:24.217Z,21.77
2022-12-12T20:16:44.452Z,22.27
2022-12-12T20:19:04.484Z,18.65
2022-12-12T20:24:07.419Z,25.80
2022-12-12T20:26:29.933Z,27.95
2022-12-12T20:28:50.889Z,28.02
2022-12-12T20:31:17.462Z,29.02
2022-12-12T20:33:38.473Z,33.33
2022-12-12T20:36:06.336Z,30.50
2022-12-12T20:38:28.612Z,36.15
2022-12-12T20:40:48.465Z,30.07
2022-12-12T20:43:08.114Z,31.10
2022-12-12T20:45:27.866Z,29.02
2022-12-12T20:47:47.566Z,23.80
2022-12-12T20:50:07.754Z,21.38
2022-12-12T20:52:28.509Z,15.10
2022-12-12T20:54:48.194Z,16.92
2022-12-12T20:57:07.888Z,16.23
2022-12-12T20:59:27.514Z,19.38
2022-12-12T21:01:47.772Z,18.63
2022-12-12T21:04:08.693Z,20.02
2022-12-12T21:06:31.805Z,25.60
2022-12-12T21:08:52.585Z,21.67
2022-12-12T21:11:15.163Z,16.30
2022-12-12T21:13:35.688Z,16.77
2022-12-12T21:15:55.589Z,17.15
2022-12-12T21:18:15.238Z,21.27
2022-12-12T21:20:35.449Z,21.25
2022-12-12T21:22:55.099Z,22.02
2022-12-12T21:25:14.990Z,25.35
2022-12-12T21:27:34.767Z,23.25
2022-12-12T21:29:54.627Z,21.52
2022-12-12T21:32:14.395Z,24.48
2022-12-12T21:34:33.936Z,21.83
2022-12-12T21:36:54.453Z,22.10
2022-12-12T21:39:14.486Z,23.73
2022-12-12T21:41:34.698Z,19.92
2022-12-12T21:43:58.850Z,21.85
2022-12-12T21:46:21.395Z,20.83
2022-12-12T21:48:41.454Z,21.48
2022-12-12T21:51:02.956Z,25.27
2022-12-12T21:53:34.614Z,24.23
2022-12-12T21:55:58.523Z,25.27
2022-12-12T21:58:18.063Z,24.13
2022-12-12T22:00:41.949Z,24.13
2022-12-12T22:03:02.146Z,24.63
2022-12-12T22:05:23.254Z,22.90
2022-12-12T22:07:42.883Z,22.38
2022-12-12T22:10:11.348Z,27.40
2022-12-12T22:12:33.676Z,23.85
2022-12-12T22:14:53.188Z,21.80
2022-12-12T22:17:13.650Z,21.60
2022-12-12T22:19:33.369Z,23.92
2022-12-12T22:21:54.177Z,22.85
2022-12-12T22:24:16.533Z,17.83
2022-12-12T22:26:39.829Z,19.00
2022-12-12T22:31:22.774Z,17.58
2022-12-12T22:33:42.771Z,18.55
2022-12-12T22:36:07.605Z,20.90
2022-12-12T22:38:27.591Z,19.90
2022-12-12T22:40:54.486Z,21.90
2022-12-12T22:43:14.440Z,21.45
2022-12-12T22:45:35.520Z,22.63
2022-12-12T22:47:55.275Z,22.35
2022-12-12T22:50:15.553Z,22.65
2022-12-12T22:52:35.633Z,21.23
2022-12-12T22:54:55.330Z,24.33
2022-12-12T22:57:15.526Z,21.95
2022-12-12T22:59:35.228Z,23.00
2022-12-12T23:01:57.060Z,19.40
2022-12-12T23:04:17.064Z,20.73
2022-12-12T23:06:37.392Z,22.30
2022-12-12T23:09:06.664Z,24.05
2022-12-12T23:11:28.649Z,25.02
2022-12-12T23:13:49.030Z,17.40
2022-12-12T23:16:11.992Z,21.42
2022-12-12T23:18:32.091Z,24.23
2022-12-12T23:20:51.877Z,23.15
2022-12-12T23:23:11.973Z,25.48
2022-12-12T23:25:31.491Z,18.95
2022-12-12T23:27:51.564Z,19.00
2022-12-12T23:30:11.442Z,19.10
2022-12-12T23:32:31.277Z,22.60
2022-12-12T23:34:50.752Z,22.98
2022-12-12T23:37:10.396Z,22.27
2022-12-12T23:39:29.961Z,19.02
2022-12-12T23:41:51.136Z,18.35
2022-12-12T23:44:16.102Z,16.73
2022-12-12T23:46:36.590Z,18.60
2022-12-12T23:49:14.074Z,17.13
2022-12-12T23:51:36.402Z,18.60
2022-12-12T23:53:57.738Z,15.07
2022-12-12T23:56:17.613Z,18.27
2022-12-12T23:58:37.502Z,19.85
